sensor_id;sensor_type;location;lat;lon;timestamp;P1;durP1;ratioP1;P2;durP2;ratioP2
76103;SDS011;64831;44.870;37.336;2023-02-04T00:00:55;9.05;;;1.73;;
76103;SDS011;64831;44.870;37.336;2023-02-04T00:03:21;3.88;;;1.45;;
76103;SDS011;64831;44.870;37.336;2023-02-04T00:05:47;6.53;;;1.55;;
76103;SDS011;64831;44.870;37.336;2023-02-04T00:08:13;2.78;;;1.40;;
76103;SDS011;64831;44.870;37.336;2023-02-04T00:10:39;1.98;;;1.35;;
76103;SDS011;64831;44.870;37.336;2023-02-04T00:13:05;4.20;;;1.77;;
76103;SDS011;64831;44.870;37.336;2023-02-04T00:15:31;6.90;;;1.52;;
76103;SDS011;64831;44.870;37.336;2023-02-04T00:17:58;2.60;;;1.55;;
76103;SDS011;64831;44.870;37.336;2023-02-04T00:20:24;3.30;;;1.67;;
76103;SDS011;64831;44.870;37.336;2023-02-04T00:22:50;4.97;;;1.83;;
76103;SDS011;64831;44.870;37.336;2023-02-04T00:25:16;3.17;;;1.52;;
76103;SDS011;64831;44.870;37.336;2023-02-04T00:27:42;3.42;;;1.48;;
76103;SDS011;64831;44.870;37.336;2023-02-04T00:30:08;6.32;;;1.63;;
76103;SDS011;64831;44.870;37.336;2023-02-04T00:32:35;2.65;;;1.70;;
76103;SDS011;64831;44.870;37.336;2023-02-04T00:35:01;2.58;;;1.60;;
76103;SDS011;64831;44.870;37.336;2023-02-04T00:37:29;2.65;;;1.75;;
76103;SDS011;64831;44.870;37.336;2023-02-04T00:39:56;6.80;;;1.80;;
76103;SDS011;64831;44.870;37.336;2023-02-04T00:42:21;4.15;;;1.73;;
76103;SDS011;64831;44.870;37.336;2023-02-04T00:44:47;3.03;;;1.80;;
76103;SDS011;64831;44.870;37.336;2023-02-04T00:47:13;3.88;;;1.77;;
76103;SDS011;64831;44.870;37.336;2023-02-04T00:49:39;7.72;;;1.92;;
76103;SDS011;64831;44.870;37.336;2023-02-04T00:52:05;5.13;;;2.38;;
76103;SDS011;64831;44.870;37.336;2023-02-04T00:54:31;4.65;;;2.05;;
76103;SDS011;64831;44.870;37.336;2023-02-04T00:56:57;4.88;;;2.08;;
76103;SDS011;64831;44.870;37.336;2023-02-04T00:59:23;6.00;;;2.20;;
76103;SDS011;64831;44.870;37.336;2023-02-04T01:01:49;4.88;;;2.28;;
76103;SDS011;64831;44.870;37.336;2023-02-04T01:04:15;3.85;;;1.83;;
76103;SDS011;64831;44.870;37.336;2023-02-04T01:06:42;6.43;;;2.22;;
76103;SDS011;64831;44.870;37.336;2023-02-04T01:09:08;7.90;;;2.42;;
76103;SDS011;64831;44.870;37.336;2023-02-04T01:11:34;9.20;;;2.65;;
76103;SDS011;64831;44.870;37.336;2023-02-04T01:14:00;7.82;;;2.38;;
76103;SDS011;64831;44.870;37.336;2023-02-04T01:16:26;4.40;;;1.92;;
76103;SDS011;64831;44.870;37.336;2023-02-04T01:18:53;5.13;;;1.95;;
76103;SDS011;64831;44.870;37.336;2023-02-04T01:21:23;6.82;;;2.38;;
76103;SDS011;64831;44.870;37.336;2023-02-04T01:23:49;5.82;;;2.08;;
76103;SDS011;64831;44.870;37.336;2023-02-04T01:26:18;4.20;;;2.20;;
76103;SDS011;64831;44.870;37.336;2023-02-04T01:28:45;4.05;;;1.77;;
76103;SDS011;64831;44.870;37.336;2023-02-04T01:31:12;3.88;;;2.08;;
76103;SDS011;64831;44.870;37.336;2023-02-04T01:33:39;9.65;;;2.08;;
76103;SDS011;64831;44.870;37.336;2023-02-04T01:36:05;4.13;;;2.20;;
76103;SDS011;64831;44.870;37.336;2023-02-04T01:38:31;3.95;;;2.15;;
76103;SDS011;64831;44.870;37.336;2023-02-04T01:40:57;6.28;;;1.73;;
76103;SDS011;64831;44.870;37.336;2023-02-04T01:43:23;7.53;;;2.60;;
76103;SDS011;64831;44.870;37.336;2023-02-04T01:45:50;8.23;;;3.63;;
76103;SDS011;64831;44.870;37.336;2023-02-04T01:48:17;8.60;;;3.45;;
76103;SDS011;64831;44.870;37.336;2023-02-04T01:50:48;10.85;;;2.53;;
76103;SDS011;64831;44.870;37.336;2023-02-04T01:53:17;5.03;;;2.17;;
76103;SDS011;64831;44.870;37.336;2023-02-04T01:55:45;3.60;;;2.10;;
76103;SDS011;64831;44.870;37.336;2023-02-04T01:58:11;10.20;;;2.63;;
76103;SDS011;64831;44.870;37.336;2023-02-04T02:00:37;5.10;;;2.55;;
76103;SDS011;64831;44.870;37.336;2023-02-04T02:03:04;5.28;;;2.13;;
76103;SDS011;64831;44.870;37.336;2023-02-04T02:05:39;6.60;;;2.17;;
76103;SDS011;64831;44.870;37.336;2023-02-04T02:08:08;4.32;;;2.40;;
76103;SDS011;64831;44.870;37.336;2023-02-04T02:10:37;5.85;;;2.45;;
76103;SDS011;64831;44.870;37.336;2023-02-04T02:13:04;7.63;;;2.22;;
76103;SDS011;64831;44.870;37.336;2023-02-04T02:15:37;4.63;;;2.08;;
76103;SDS011;64831;44.870;37.336;2023-02-04T02:18:04;4.90;;;1.90;;
76103;SDS011;64831;44.870;37.336;2023-02-04T02:20:30;6.63;;;2.50;;
76103;SDS011;64831;44.870;37.336;2023-02-04T02:23:05;5.05;;;2.40;;
76103;SDS011;64831;44.870;37.336;2023-02-04T02:25:46;5.93;;;2.25;;
76103;SDS011;64831;44.870;37.336;2023-02-04T02:28:14;6.50;;;2.22;;
76103;SDS011;64831;44.870;37.336;2023-02-04T02:30:44;5.07;;;2.45;;
76103;SDS011;64831;44.870;37.336;2023-02-04T02:33:11;5.68;;;2.40;;
76103;SDS011;64831;44.870;37.336;2023-02-04T02:35:39;2.90;;;1.85;;
76103;SDS011;64831;44.870;37.336;2023-02-04T02:38:08;4.60;;;2.13;;
76103;SDS011;64831;44.870;37.336;2023-02-04T02:40:39;5.72;;;2.30;;
76103;SDS011;64831;44.870;37.336;2023-02-04T02:43:05;4.72;;;2.30;;
76103;SDS011;64831;44.870;37.336;2023-02-04T02:45:33;5.03;;;2.22;;
76103;SDS011;64831;44.870;37.336;2023-02-04T02:48:01;3.22;;;1.65;;
76103;SDS011;64831;44.870;37.336;2023-02-04T02:50:28;8.63;;;2.25;;
76103;SDS011;64831;44.870;37.336;2023-02-04T02:52:55;4.15;;;2.17;;
76103;SDS011;64831;44.870;37.336;2023-02-04T02:55:23;2.40;;;1.70;;
76103;SDS011;64831;44.870;37.336;2023-02-04T02:57:50;6.38;;;2.10;;
76103;SDS011;64831;44.870;37.336;2023-02-04T03:02:56;1.98;;;1.40;;
76103;SDS011;64831;44.870;37.336;2023-02-04T03:05:22;4.47;;;2.00;;
76103;SDS011;64831;44.870;37.336;2023-02-04T03:07:49;4.03;;;1.67;;
76103;SDS011;64831;44.870;37.336;2023-02-04T03:10:15;2.25;;;1.58;;
76103;SDS011;64831;44.870;37.336;2023-02-04T03:12:43;3.08;;;1.73;;
76103;SDS011;64831;44.870;37.336;2023-02-04T03:15:10;2.05;;;1.40;;
76103;SDS011;64831;44.870;37.336;2023-02-04T03:17:37;3.28;;;1.50;;
76103;SDS011;64831;44.870;37.336;2023-02-04T03:20:04;2.50;;;1.42;;
76103;SDS011;64831;44.870;37.336;2023-02-04T03:22:31;3.33;;;1.50;;
76103;SDS011;64831;44.870;37.336;2023-02-04T03:24:57;2.22;;;1.20;;
76103;SDS011;64831;44.870;37.336;2023-02-04T03:27:23;2.95;;;1.42;;
76103;SDS011;64831;44.870;37.336;2023-02-04T03:29:49;2.22;;;1.42;;
76103;SDS011;64831;44.870;37.336;2023-02-04T03:32:16;3.28;;;1.70;;
76103;SDS011;64831;44.870;37.336;2023-02-04T03:34:41;2.78;;;1.40;;
76103;SDS011;64831;44.870;37.336;2023-02-04T03:37:07;1.65;;;1.48;;
76103;SDS011;64831;44.870;37.336;2023-02-04T03:39:33;2.38;;;1.17;;
76103;SDS011;64831;44.870;37.336;2023-02-04T03:41:59;2.47;;;1.35;;
76103;SDS011;64831;44.870;37.336;2023-02-04T03:44:25;3.72;;;1.48;;
76103;SDS011;64831;44.870;37.336;2023-02-04T03:46:51;1.20;;;1.10;;
76103;SDS011;64831;44.870;37.336;2023-02-04T03:49:22;2.53;;;1.05;;
76103;SDS011;64831;44.870;37.336;2023-02-04T03:51:49;1.85;;;1.20;;
76103;SDS011;64831;44.870;37.336;2023-02-04T03:54:15;3.08;;;0.88;;
76103;SDS011;64831;44.870;37.336;2023-02-04T03:56:41;1.92;;;1.25;;
76103;SDS011;64831;44.870;37.336;2023-02-04T03:59:07;0.88;;;0.60;;
76103;SDS011;64831;44.870;37.336;2023-02-04T04:01:32;0.55;;;0.50;;
76103;SDS011;64831;44.870;37.336;2023-02-04T04:03:58;2.72;;;1.10;;
76103;SDS011;64831;44.870;37.336;2023-02-04T04:06:24;1.00;;;0.70;;
76103;SDS011;64831;44.870;37.336;2023-02-04T04:08:50;0.88;;;0.77;;
76103;SDS011;64831;44.870;37.336;2023-02-04T04:11:16;1.85;;;0.70;;
76103;SDS011;64831;44.870;37.336;2023-02-04T04:13:42;1.42;;;1.10;;
76103;SDS011;64831;44.870;37.336;2023-02-04T04:16:08;6.80;;;1.20;;
76103;SDS011;64831;44.870;37.336;2023-02-04T04:18:34;0.68;;;0.28;;
76103;SDS011;64831;44.870;37.336;2023-02-04T04:21:00;0.73;;;0.40;;
76103;SDS011;64831;44.870;37.336;2023-02-04T04:23:26;2.38;;;0.43;;
76103;SDS011;64831;44.870;37.336;2023-02-04T04:25:52;0.50;;;0.20;;
76103;SDS011;64831;44.870;37.336;2023-02-04T04:28:18;1.25;;;0.70;;
76103;SDS011;64831;44.870;37.336;2023-02-04T04:30:44;0.77;;;0.60;;
76103;SDS011;64831;44.870;37.336;2023-02-04T04:33:10;1.35;;;0.80;;
76103;SDS011;64831;44.870;37.336;2023-02-04T04:35:36;12.45;;;3.97;;
76103;SDS011;64831;44.870;37.336;2023-02-04T04:38:03;1.98;;;0.70;;
76103;SDS011;64831;44.870;37.336;2023-02-04T04:40:28;0.93;;;0.50;;
76103;SDS011;64831;44.870;37.336;2023-02-04T04:42:54;0.30;;;0.30;;
76103;SDS011;64831;44.870;37.336;2023-02-04T04:45:20;0.55;;;0.55;;
76103;SDS011;64831;44.870;37.336;2023-02-04T04:47:46;1.00;;;0.70;;
76103;SDS011;64831;44.870;37.336;2023-02-04T04:50:12;1.10;;;0.80;;
76103;SDS011;64831;44.870;37.336;2023-02-04T04:52:38;4.22;;;0.80;;
76103;SDS011;64831;44.870;37.336;2023-02-04T04:55:04;0.98;;;0.85;;
76103;SDS011;64831;44.870;37.336;2023-02-04T04:57:30;2.22;;;1.20;;
76103;SDS011;64831;44.870;37.336;2023-02-04T04:59:56;3.25;;;1.30;;
76103;SDS011;64831;44.870;37.336;2023-02-04T05:02:22;2.40;;;1.30;;
76103;SDS011;64831;44.870;37.336;2023-02-04T05:04:48;1.90;;;1.13;;
76103;SDS011;64831;44.870;37.336;2023-02-04T05:07:14;2.05;;;1.08;;
76103;SDS011;64831;44.870;37.336;2023-02-04T05:09:40;2.10;;;1.20;;
76103;SDS011;64831;44.870;37.336;2023-02-04T05:12:06;3.65;;;1.58;;
76103;SDS011;64831;44.870;37.336;2023-02-04T05:14:32;4.30;;;1.77;;
76103;SDS011;64831;44.870;37.336;2023-02-04T05:16:58;3.95;;;1.73;;
76103;SDS011;64831;44.870;37.336;2023-02-04T05:19:23;2.47;;;1.65;;
76103;SDS011;64831;44.870;37.336;2023-02-04T05:21:49;0.75;;;0.75;;
76103;SDS011;64831;44.870;37.336;2023-02-04T05:24:15;2.55;;;1.65;;
76103;SDS011;64831;44.870;37.336;2023-02-04T05:26:41;2.22;;;1.50;;
76103;SDS011;64831;44.870;37.336;2023-02-04T05:29:07;5.00;;;1.88;;
76103;SDS011;64831;44.870;37.336;2023-02-04T05:31:34;3.13;;;1.92;;
76103;SDS011;64831;44.870;37.336;2023-02-04T05:34:00;4.45;;;1.67;;
76103;SDS011;64831;44.870;37.336;2023-02-04T05:36:26;3.97;;;2.00;;
76103;SDS011;64831;44.870;37.336;2023-02-04T05:38:52;2.72;;;1.77;;
76103;SDS011;64831;44.870;37.336;2023-02-04T05:41:18;3.83;;;1.98;;
76103;SDS011;64831;44.870;37.336;2023-02-04T05:43:43;5.82;;;2.35;;
76103;SDS011;64831;44.870;37.336;2023-02-04T05:46:09;4.50;;;2.15;;
76103;SDS011;64831;44.870;37.336;2023-02-04T05:48:35;3.33;;;2.08;;
76103;SDS011;64831;44.870;37.336;2023-02-04T05:51:01;2.50;;;1.67;;
76103;SDS011;64831;44.870;37.336;2023-02-04T05:53:27;2.60;;;1.48;;
76103;SDS011;64831;44.870;37.336;2023-02-04T05:55:53;2.72;;;1.17;;
76103;SDS011;64831;44.870;37.336;2023-02-04T05:58:19;1.10;;;1.00;;
76103;SDS011;64831;44.870;37.336;2023-02-04T06:00:45;0.75;;;0.65;;
76103;SDS011;64831;44.870;37.336;2023-02-04T06:03:10;1.02;;;0.90;;
76103;SDS011;64831;44.870;37.336;2023-02-04T06:05:38;4.00;;;2.25;;
76103;SDS011;64831;44.870;37.336;2023-02-04T06:08:05;4.10;;;2.17;;
76103;SDS011;64831;44.870;37.336;2023-02-04T06:10:31;3.35;;;1.45;;
76103;SDS011;64831;44.870;37.336;2023-02-04T06:12:57;4.53;;;2.17;;
76103;SDS011;64831;44.870;37.336;2023-02-04T06:15:23;2.85;;;1.77;;
76103;SDS011;64831;44.870;37.336;2023-02-04T06:17:49;2.70;;;1.65;;
76103;SDS011;64831;44.870;37.336;2023-02-04T06:20:15;2.60;;;1.73;;
76103;SDS011;64831;44.870;37.336;2023-02-04T06:22:41;3.03;;;1.52;;
76103;SDS011;64831;44.870;37.336;2023-02-04T06:25:07;4.30;;;2.25;;
76103;SDS011;64831;44.870;37.336;2023-02-04T06:27:33;4.93;;;2.63;;
76103;SDS011;64831;44.870;37.336;2023-02-04T06:29:59;6.57;;;2.78;;
76103;SDS011;64831;44.870;37.336;2023-02-04T06:32:24;5.20;;;2.90;;
76103;SDS011;64831;44.870;37.336;2023-02-04T06:34:50;3.40;;;2.22;;
76103;SDS011;64831;44.870;37.336;2023-02-04T06:37:16;3.95;;;2.47;;
76103;SDS011;64831;44.870;37.336;2023-02-04T06:39:42;4.82;;;2.95;;
76103;SDS011;64831;44.870;37.336;2023-02-04T06:42:08;5.45;;;2.40;;
76103;SDS011;64831;44.870;37.336;2023-02-04T06:44:34;4.28;;;2.78;;
76103;SDS011;64831;44.870;37.336;2023-02-04T06:47:00;8.10;;;4.00;;
76103;SDS011;64831;44.870;37.336;2023-02-04T06:49:26;10.27;;;4.57;;
76103;SDS011;64831;44.870;37.336;2023-02-04T06:51:52;6.47;;;3.47;;
76103;SDS011;64831;44.870;37.336;2023-02-04T06:54:19;6.10;;;2.40;;
76103;SDS011;64831;44.870;37.336;2023-02-04T06:56:45;4.10;;;2.42;;
76103;SDS011;64831;44.870;37.336;2023-02-04T06:59:11;3.33;;;2.40;;
76103;SDS011;64831;44.870;37.336;2023-02-04T07:01:37;2.90;;;2.22;;
76103;SDS011;64831;44.870;37.336;2023-02-04T07:04:02;4.15;;;2.60;;
76103;SDS011;64831;44.870;37.336;2023-02-04T07:06:28;3.38;;;2.42;;
76103;SDS011;64831;44.870;37.336;2023-02-04T07:08:54;4.47;;;2.80;;
76103;SDS011;64831;44.870;37.336;2023-02-04T07:11:20;4.03;;;2.42;;
76103;SDS011;64831;44.870;37.336;2023-02-04T07:13:46;3.95;;;2.40;;
76103;SDS011;64831;44.870;37.336;2023-02-04T07:16:12;3.25;;;2.45;;
76103;SDS011;64831;44.870;37.336;2023-02-04T07:18:41;2.17;;;1.98;;
76103;SDS011;64831;44.870;37.336;2023-02-04T07:21:06;3.20;;;2.20;;
76103;SDS011;64831;44.870;37.336;2023-02-04T07:23:32;2.95;;;2.40;;
76103;SDS011;64831;44.870;37.336;2023-02-04T07:25:58;3.13;;;2.30;;
76103;SDS011;64831;44.870;37.336;2023-02-04T07:28:24;3.63;;;2.40;;
76103;SDS011;64831;44.870;37.336;2023-02-04T07:30:50;3.85;;;2.28;;
76103;SDS011;64831;44.870;37.336;2023-02-04T07:33:16;2.75;;;1.98;;
76103;SDS011;64831;44.870;37.336;2023-02-04T07:35:42;4.28;;;2.30;;
76103;SDS011;64831;44.870;37.336;2023-02-04T07:38:08;3.92;;;2.40;;
76103;SDS011;64831;44.870;37.336;2023-02-04T07:40:35;3.13;;;1.75;;
76103;SDS011;64831;44.870;37.336;2023-02-04T07:43:00;3.70;;;2.58;;
76103;SDS011;64831;44.870;37.336;2023-02-04T07:45:27;6.03;;;3.30;;
76103;SDS011;64831;44.870;37.336;2023-02-04T07:47:53;2.08;;;1.70;;
76103;SDS011;64831;44.870;37.336;2023-02-04T07:50:19;2.50;;;1.70;;
76103;SDS011;64831;44.870;37.336;2023-02-04T07:52:45;2.55;;;1.77;;
76103;SDS011;64831;44.870;37.336;2023-02-04T07:55:11;1.88;;;1.52;;
76103;SDS011;64831;44.870;37.336;2023-02-04T07:57:37;4.95;;;2.17;;
76103;SDS011;64831;44.870;37.336;2023-02-04T08:00:03;4.00;;;2.00;;
76103;SDS011;64831;44.870;37.336;2023-02-04T08:02:37;2.60;;;1.90;;
76103;SDS011;64831;44.870;37.336;2023-02-04T08:05:03;5.47;;;2.25;;
76103;SDS011;64831;44.870;37.336;2023-02-04T08:07:30;2.30;;;1.70;;
76103;SDS011;64831;44.870;37.336;2023-02-04T08:09:55;3.88;;;2.45;;
76103;SDS011;64831;44.870;37.336;2023-02-04T08:52:05;6.65;;;3.10;;
76103;SDS011;64831;44.870;37.336;2023-02-04T08:54:32;5.78;;;2.60;;
76103;SDS011;64831;44.870;37.336;2023-02-04T08:56:59;3.35;;;2.40;;
76103;SDS011;64831;44.870;37.336;2023-02-04T08:59:26;4.07;;;2.33;;
76103;SDS011;64831;44.870;37.336;2023-02-04T09:01:52;4.30;;;2.45;;
76103;SDS011;64831;44.870;37.336;2023-02-04T09:04:19;4.35;;;1.63;;
76103;SDS011;64831;44.870;37.336;2023-02-04T09:06:46;3.92;;;2.47;;
76103;SDS011;64831;44.870;37.336;2023-02-04T09:09:12;2.50;;;1.48;;
76103;SDS011;64831;44.870;37.336;2023-02-04T09:11:38;3.83;;;1.77;;
76103;SDS011;64831;44.870;37.336;2023-02-04T09:14:05;4.60;;;2.72;;
76103;SDS011;64831;44.870;37.336;2023-02-04T09:16:31;5.70;;;2.67;;
76103;SDS011;64831;44.870;37.336;2023-02-04T09:18:57;2.15;;;1.50;;
76103;SDS011;64831;44.870;37.336;2023-02-04T09:21:24;2.55;;;1.60;;
76103;SDS011;64831;44.870;37.336;2023-02-04T09:23:50;3.88;;;2.50;;
76103;SDS011;64831;44.870;37.336;2023-02-04T09:26:16;3.78;;;2.53;;
76103;SDS011;64831;44.870;37.336;2023-02-04T09:28:42;3.53;;;2.35;;
76103;SDS011;64831;44.870;37.336;2023-02-04T09:31:08;3.40;;;2.53;;
76103;SDS011;64831;44.870;37.336;2023-02-04T09:33:35;5.13;;;2.53;;
76103;SDS011;64831;44.870;37.336;2023-02-04T09:36:01;7.03;;;2.20;;
76103;SDS011;64831;44.870;37.336;2023-02-04T09:38:27;3.67;;;2.10;;
76103;SDS011;64831;44.870;37.336;2023-02-04T09:40:54;4.90;;;3.10;;
76103;SDS011;64831;44.870;37.336;2023-02-04T09:43:26;4.07;;;2.03;;
76103;SDS011;64831;44.870;37.336;2023-02-04T09:45:54;2.67;;;2.05;;
76103;SDS011;64831;44.870;37.336;2023-02-04T09:48:21;3.67;;;2.22;;
76103;SDS011;64831;44.870;37.336;2023-02-04T09:50:49;3.97;;;2.55;;
76103;SDS011;64831;44.870;37.336;2023-02-04T09:53:18;3.00;;;1.85;;
76103;SDS011;64831;44.870;37.336;2023-02-04T09:55:47;1.67;;;1.55;;
76103;SDS011;64831;44.870;37.336;2023-02-04T09:58:16;2.22;;;1.67;;
76103;SDS011;64831;44.870;37.336;2023-02-04T10:00:47;3.90;;;2.45;;
76103;SDS011;64831;44.870;37.336;2023-02-04T10:03:22;3.15;;;2.10;;
76103;SDS011;64831;44.870;37.336;2023-02-04T10:05:48;3.70;;;2.67;;
76103;SDS011;64831;44.870;37.336;2023-02-04T10:08:17;3.47;;;2.00;;
76103;SDS011;64831;44.870;37.336;2023-02-04T10:10:45;5.65;;;2.78;;
76103;SDS011;64831;44.870;37.336;2023-02-04T10:13:15;3.67;;;2.05;;
76103;SDS011;64831;44.870;37.336;2023-02-04T10:15:43;4.15;;;2.67;;
76103;SDS011;64831;44.870;37.336;2023-02-04T10:18:10;3.30;;;1.98;;
76103;SDS011;64831;44.870;37.336;2023-02-04T10:20:41;2.65;;;1.77;;
76103;SDS011;64831;44.870;37.336;2023-02-04T10:23:08;2.10;;;1.30;;
76103;SDS011;64831;44.870;37.336;2023-02-04T10:25:35;2.70;;;1.55;;
76103;SDS011;64831;44.870;37.336;2023-02-04T10:28:01;1.38;;;0.95;;
76103;SDS011;64831;44.870;37.336;2023-02-04T10:30:29;3.15;;;1.60;;
76103;SDS011;64831;44.870;37.336;2023-02-04T10:33:20;4.90;;;1.15;;
76103;SDS011;64831;44.870;37.336;2023-02-04T10:35:50;4.18;;;1.83;;
76103;SDS011;64831;44.870;37.336;2023-02-04T10:38:21;3.30;;;2.15;;
76103;SDS011;64831;44.870;37.336;2023-02-04T10:40:48;2.78;;;2.03;;
76103;SDS011;64831;44.870;37.336;2023-02-04T10:43:24;3.83;;;2.08;;
76103;SDS011;64831;44.870;37.336;2023-02-04T10:45:55;3.20;;;2.10;;
76103;SDS011;64831;44.870;37.336;2023-02-04T10:48:23;2.13;;;1.27;;
76103;SDS011;64831;44.870;37.336;2023-02-04T10:50:50;2.35;;;1.60;;
76103;SDS011;64831;44.870;37.336;2023-02-04T10:53:20;4.80;;;2.40;;
76103;SDS011;64831;44.870;37.336;2023-02-04T10:56:14;5.72;;;2.42;;
76103;SDS011;64831;44.870;37.336;2023-02-04T10:58:42;3.80;;;2.03;;
76103;SDS011;64831;44.870;37.336;2023-02-04T11:01:09;2.47;;;1.88;;
76103;SDS011;64831;44.870;37.336;2023-02-04T11:03:39;3.38;;;2.45;;
76103;SDS011;64831;44.870;37.336;2023-02-04T11:06:10;12.38;;;5.68;;
76103;SDS011;64831;44.870;37.336;2023-02-04T11:08:37;30.27;;;12.85;;
76103;SDS011;64831;44.870;37.336;2023-02-04T11:11:08;36.00;;;11.05;;
76103;SDS011;64831;44.870;37.336;2023-02-04T11:21:24;6.75;;;2.60;;
76103;SDS011;64831;44.870;37.336;2023-02-04T11:24:03;3.00;;;1.90;;
76103;SDS011;64831;44.870;37.336;2023-02-04T11:26:36;5.72;;;2.65;;
76103;SDS011;64831;44.870;37.336;2023-02-04T11:36:55;6.07;;;2.17;;
76103;SDS011;64831;44.870;37.336;2023-02-04T11:39:31;4.50;;;1.75;;
76103;SDS011;64831;44.870;37.336;2023-02-04T11:42:03;1.70;;;1.13;;
76103;SDS011;64831;44.870;37.336;2023-02-04T11:44:40;4.53;;;2.13;;
76103;SDS011;64831;44.870;37.336;2023-02-04T11:47:07;4.25;;;1.92;;
76103;SDS011;64831;44.870;37.336;2023-02-04T11:49:34;2.80;;;1.90;;
76103;SDS011;64831;44.870;37.336;2023-02-04T11:52:05;3.35;;;1.90;;
76103;SDS011;64831;44.870;37.336;2023-02-04T11:54:33;0.52;;;0.52;;
76103;SDS011;64831;44.870;37.336;2023-02-04T11:57:00;3.90;;;1.77;;
76103;SDS011;64831;44.870;37.336;2023-02-04T11:59:26;5.97;;;2.58;;
76103;SDS011;64831;44.870;37.336;2023-02-04T12:07:33;5.03;;;2.08;;
76103;SDS011;64831;44.870;37.336;2023-02-04T12:10:09;3.80;;;2.17;;
76103;SDS011;64831;44.870;37.336;2023-02-04T12:12:41;3.47;;;2.28;;
76103;SDS011;64831;44.870;37.336;2023-02-04T12:15:13;7.30;;;4.03;;
76103;SDS011;64831;44.870;37.336;2023-02-04T12:17:45;4.55;;;2.00;;
76103;SDS011;64831;44.870;37.336;2023-02-04T12:20:12;6.70;;;3.35;;
76103;SDS011;64831;44.870;37.336;2023-02-04T12:22:38;9.77;;;2.45;;
76103;SDS011;64831;44.870;37.336;2023-02-04T12:25:04;3.33;;;2.35;;
76103;SDS011;64831;44.870;37.336;2023-02-04T12:27:31;2.25;;;1.30;;
76103;SDS011;64831;44.870;37.336;2023-02-04T12:29:57;4.82;;;2.05;;
76103;SDS011;64831;44.870;37.336;2023-02-04T12:32:23;4.75;;;2.33;;
76103;SDS011;64831;44.870;37.336;2023-02-04T12:34:49;5.80;;;2.13;;
76103;SDS011;64831;44.870;37.336;2023-02-04T12:37:15;3.15;;;1.40;;
76103;SDS011;64831;44.870;37.336;2023-02-04T12:39:41;4.55;;;1.77;;
76103;SDS011;64831;44.870;37.336;2023-02-04T12:42:07;4.10;;;2.28;;
76103;SDS011;64831;44.870;37.336;2023-02-04T12:44:33;5.00;;;2.35;;
76103;SDS011;64831;44.870;37.336;2023-02-04T12:46:59;1.35;;;1.13;;
76103;SDS011;64831;44.870;37.336;2023-02-04T12:49:25;4.82;;;2.10;;
76103;SDS011;64831;44.870;37.336;2023-02-04T12:51:52;1.92;;;1.10;;
76103;SDS011;64831;44.870;37.336;2023-02-04T12:54:18;3.80;;;2.05;;
76103;SDS011;64831;44.870;37.336;2023-02-04T12:56:44;1.77;;;1.33;;
76103;SDS011;64831;44.870;37.336;2023-02-04T12:59:13;4.20;;;1.65;;
76103;SDS011;64831;44.870;37.336;2023-02-04T13:01:39;4.90;;;2.15;;
76103;SDS011;64831;44.870;37.336;2023-02-04T13:04:05;4.10;;;1.70;;
76103;SDS011;64831;44.870;37.336;2023-02-04T13:06:31;3.38;;;1.23;;
76103;SDS011;64831;44.870;37.336;2023-02-04T13:08:57;1.77;;;1.38;;
76103;SDS011;64831;44.870;37.336;2023-02-04T13:11:23;2.63;;;1.80;;
76103;SDS011;64831;44.870;37.336;2023-02-04T13:13:49;0.85;;;0.85;;
76103;SDS011;64831;44.870;37.336;2023-02-04T13:16:14;1.23;;;0.90;;
76103;SDS011;64831;44.870;37.336;2023-02-04T13:18:43;2.15;;;1.48;;
76103;SDS011;64831;44.870;37.336;2023-02-04T13:21:09;1.63;;;1.02;;
76103;SDS011;64831;44.870;37.336;2023-02-04T13:23:35;2.05;;;1.40;;
76103;SDS011;64831;44.870;37.336;2023-02-04T13:26:04;4.95;;;1.13;;
76103;SDS011;64831;44.870;37.336;2023-02-04T13:35:48;1.48;;;1.00;;
76103;SDS011;64831;44.870;37.336;2023-02-04T13:38:35;0.63;;;0.63;;
76103;SDS011;64831;44.870;37.336;2023-02-04T13:42:05;4.30;;;1.27;;
76103;SDS011;64831;44.870;37.336;2023-02-04T13:44:31;3.83;;;1.25;;
76103;SDS011;64831;44.870;37.336;2023-02-04T13:46:57;10.77;;;3.25;;
76103;SDS011;64831;44.870;37.336;2023-02-04T13:49:23;4.55;;;1.80;;
76103;SDS011;64831;44.870;37.336;2023-02-04T13:51:49;3.53;;;1.35;;
76103;SDS011;64831;44.870;37.336;2023-02-04T13:54:15;2.40;;;1.30;;
76103;SDS011;64831;44.870;37.336;2023-02-04T13:56:41;6.25;;;1.42;;
76103;SDS011;64831;44.870;37.336;2023-02-04T13:59:07;5.80;;;1.20;;
76103;SDS011;64831;44.870;37.336;2023-02-04T14:01:33;3.42;;;1.25;;
76103;SDS011;64831;44.870;37.336;2023-02-04T14:03:59;3.13;;;1.50;;
76103;SDS011;64831;44.870;37.336;2023-02-04T14:06:25;4.55;;;1.20;;
76103;SDS011;64831;44.870;37.336;2023-02-04T14:08:58;2.72;;;1.23;;
76103;SDS011;64831;44.870;37.336;2023-02-04T14:11:25;5.32;;;1.23;;
76103;SDS011;64831;44.870;37.336;2023-02-04T14:13:51;4.28;;;1.75;;
76103;SDS011;64831;44.870;37.336;2023-02-04T14:16:16;3.45;;;1.63;;
76103;SDS011;64831;44.870;37.336;2023-02-04T14:18:42;2.70;;;1.40;;
76103;SDS011;64831;44.870;37.336;2023-02-04T14:21:08;7.57;;;1.20;;
76103;SDS011;64831;44.870;37.336;2023-02-04T14:23:34;8.60;;;1.73;;
76103;SDS011;64831;44.870;37.336;2023-02-04T14:26:00;2.30;;;1.50;;
76103;SDS011;64831;44.870;37.336;2023-02-04T14:28:26;2.42;;;1.35;;
76103;SDS011;64831;44.870;37.336;2023-02-04T14:30:52;3.72;;;1.33;;
76103;SDS011;64831;44.870;37.336;2023-02-04T14:33:21;3.60;;;1.60;;
76103;SDS011;64831;44.870;37.336;2023-02-04T14:35:47;3.80;;;0.93;;
76103;SDS011;64831;44.870;37.336;2023-02-04T14:38:13;1.58;;;0.68;;
76103;SDS011;64831;44.870;37.336;2023-02-04T14:40:40;1.02;;;0.82;;
76103;SDS011;64831;44.870;37.336;2023-02-04T14:43:07;1.83;;;1.00;;
76103;SDS011;64831;44.870;37.336;2023-02-04T14:45:35;2.95;;;0.80;;
76103;SDS011;64831;44.870;37.336;2023-02-04T14:48:02;1.75;;;0.93;;
76103;SDS011;64831;44.870;37.336;2023-02-04T14:50:29;10.25;;;4.40;;
76103;SDS011;64831;44.870;37.336;2023-02-04T14:52:55;1.83;;;1.10;;
76103;SDS011;64831;44.870;37.336;2023-02-04T14:55:24;0.90;;;0.75;;
76103;SDS011;64831;44.870;37.336;2023-02-04T15:00:17;0.75;;;0.70;;
76103;SDS011;64831;44.870;37.336;2023-02-04T15:02:44;1.30;;;0.90;;
76103;SDS011;64831;44.870;37.336;2023-02-04T15:05:10;1.85;;;1.20;;
76103;SDS011;64831;44.870;37.336;2023-02-04T15:07:37;7.32;;;2.65;;
76103;SDS011;64831;44.870;37.336;2023-02-04T15:10:04;5.45;;;1.98;;
76103;SDS011;64831;44.870;37.336;2023-02-04T15:12:30;6.55;;;2.28;;
76103;SDS011;64831;44.870;37.336;2023-02-04T15:14:56;7.72;;;3.55;;
76103;SDS011;64831;44.870;37.336;2023-02-04T15:17:22;8.35;;;3.67;;
76103;SDS011;64831;44.870;37.336;2023-02-04T15:19:48;10.35;;;4.47;;
76103;SDS011;64831;44.870;37.336;2023-02-04T15:22:13;11.88;;;5.35;;
76103;SDS011;64831;44.870;37.336;2023-02-04T15:24:40;10.88;;;5.22;;
76103;SDS011;64831;44.870;37.336;2023-02-04T15:27:06;12.98;;;5.32;;
76103;SDS011;64831;44.870;37.336;2023-02-04T15:29:32;10.35;;;5.30;;
76103;SDS011;64831;44.870;37.336;2023-02-04T15:31:58;15.45;;;4.93;;
76103;SDS011;64831;44.870;37.336;2023-02-04T15:34:24;9.13;;;4.18;;
76103;SDS011;64831;44.870;37.336;2023-02-04T15:36:50;8.88;;;4.32;;
76103;SDS011;64831;44.870;37.336;2023-02-04T15:39:16;7.40;;;3.67;;
76103;SDS011;64831;44.870;37.336;2023-02-04T15:41:42;14.10;;;4.85;;
76103;SDS011;64831;44.870;37.336;2023-02-04T15:44:08;15.82;;;6.15;;
76103;SDS011;64831;44.870;37.336;2023-02-04T15:46:35;18.27;;;6.32;;